»·PEaware :: N1JG KSAN-KBLH

N1JG :: KSAN-KBLH

FLIGHT INFORMATION

Flight Status: Arrived
Operator: Privately registered:
United States
More flights under this callsign
Pilot: Josh G. (4619)
Aircraft: Unknown
(TBM9)
More flights by this aircraft type
Origin: KSAN San Diego Intl-Lindbergh
United States
Destination: KBLH Blythe
United States
More flights between these airports :: More routes between these airports
Route: BRDR7 JLI V460 SHADI V64 BLH
File this flight plan on PilotEdge
Remarks:
Altitude:
(Current/Filed)
21,000ft
Speed:
(Current/Filed)
270kts
Departed: 22-Feb-18 10:37 PM
Arrived: 22-Feb-18 11:17 PM
Distance/Time
Traveled:
135nm/0:39
Distance/Time
To Go:
Arrived

Flight Plot

Page will automatically refresh every two minutes.

Flight plan parsing failed; only flown route is shown


Map Options




Map Legend


Flown Route
Filed Route
Departure Airport
Arrival Airport
Navaid (VOR, NDB)
Fix

Horizontal Profiles

Position Reports

Time Latitude Longitude Heading Altitude Ground
Speed
22-Feb-18 22:29 32.732180 -117.177325 198 21ft 0kts
22-Feb-18 22:30 32.732180 -117.177325 198 21ft 0kts
22-Feb-18 22:31 32.732180 -117.177325 198 21ft 0kts
22-Feb-18 22:32 32.732180 -117.177325 198 21ft 0kts
22-Feb-18 22:33 32.732180 -117.177325 198 21ft 0kts
22-Feb-18 22:34 32.732180 -117.177325 198 21ft 0kts
22-Feb-18 22:35 32.732180 -117.177325 198 21ft 0kts
22-Feb-18 22:36 32.732180 -117.177325 198 21ft 0kts
22-Feb-18 22:37 32.732180 -117.177325 198 21ft 0kts
22-Feb-18 22:38 32.732180 -117.177325 198 21ft 0kts
22-Feb-18 22:39 32.732180 -117.177325 198 21ft 0kts
22-Feb-18 22:40 32.732179 -117.177325 198 21ft 0kts
22-Feb-18 22:41 32.732179 -117.177325 198 21ft 0kts
22-Feb-18 22:42 32.731292 -117.176027 118 24ft 18kts
22-Feb-18 22:43 32.730849 -117.175480 141 24ft 7kts
22-Feb-18 22:44 32.734607 -117.193693 288 288ft 129kts
22-Feb-18 22:45 32.748018 -117.242238 289 1676ft 163kts
22-Feb-18 22:46 32.762093 -117.291404 282 3888ft 151kts
22-Feb-18 22:47 32.728165 -117.294450 138 5710ft 201kts
22-Feb-18 22:48 32.697830 -117.241317 72 7372ft 211kts
22-Feb-18 22:49 32.729974 -117.190998 40 9092ft 204kts
22-Feb-18 22:50 32.759500 -117.149091 39 10487ft 210kts
22-Feb-18 22:51 32.802602 -117.087288 39 12549ft 220kts
22-Feb-18 22:52 32.841001 -117.031450 38 14290ft 226kts
22-Feb-18 22:53 32.874085 -116.983039 37 15612ft 233kts
22-Feb-18 22:54 32.922053 -116.912261 37 17415ft 243kts
22-Feb-18 22:55 32.956935 -116.860431 37 18563ft 249kts
22-Feb-18 22:56 32.999933 -116.796171 37 19943ft 254kts
22-Feb-18 22:57 33.051555 -116.718716 38 20958ft 278kts
22-Feb-18 22:58 33.093055 -116.656197 39 20955ft 303kts
22-Feb-18 22:59 33.139571 -116.585309 43 20954ft 319kts
22-Feb-18 23:00 33.190539 -116.499446 43 20954ft 325kts
22-Feb-18 23:01 33.242086 -116.412116 44 20882ft 328kts
22-Feb-18 23:02 33.292491 -116.326382 44 20859ft 328kts
22-Feb-18 23:03 33.342219 -116.241480 44 20860ft 326kts
22-Feb-18 23:04 33.393272 -116.154045 44 20861ft 325kts
22-Feb-18 23:05 33.444715 -116.065722 44 20862ft 325kts
22-Feb-18 23:06 33.495753 -115.977838 44 20863ft 325kts
22-Feb-18 23:07 33.546765 -115.889771 44 20864ft 325kts
22-Feb-18 23:08 33.597516 -115.801889 44 20993ft 322kts
22-Feb-18 23:09 33.618960 -115.696843 87 19021ft 364kts
22-Feb-18 23:10 33.616636 -115.578603 87 15306ft 346kts
22-Feb-18 23:11 33.614398 -115.472485 87 12127ft 321kts
22-Feb-18 23:12 33.612185 -115.369540 88 8956ft 300kts
22-Feb-18 23:13 33.610133 -115.281660 89 8001ft 249kts
22-Feb-18 23:14 33.608118 -115.202115 88 8012ft 231kts
22-Feb-18 23:15 33.606151 -115.124290 88 8029ft 246kts
22-Feb-18 23:16 33.604149 -115.045475 89 6549ft 237kts
22-Feb-18 23:17 33.602201 -114.971740 89 5518ft 211kts
22-Feb-18 23:18 33.600310 -114.901434 89 4230ft 211kts
22-Feb-18 23:19 33.598570 -114.833064 92 3383ft 187kts
22-Feb-18 23:20 33.597057 -114.778079 93 3379ft 152kts
22-Feb-18 23:21 33.596842 -114.723428 98 2816ft 165kts
22-Feb-18 23:22 33.598330 -114.680547 36 2015ft 119kts
22-Feb-18 23:23 33.616788 -114.694719 266 742ft 97kts
22-Feb-18 23:24 33.616255 -114.716451 227 394ft 3kts
22-Feb-18 23:25 33.616252 -114.716454 226 393ft 0kts
22-Feb-18 23:26 33.616232 -114.716472 207 394ft 2kts
22-Feb-18 23:27 33.614483 -114.712847 176 394ft 15kts
22-Feb-18 23:28 33.614289 -114.713203 356 394ft 0kts
22-Feb-18 23:29 33.614289 -114.713203 356 394ft 0kts
22-Feb-18 23:30 33.614289 -114.713203 356 394ft 0kts
22-Feb-18 23:31 33.614289 -114.713203 356 394ft 0kts
22-Feb-18 23:32 33.614289 -114.713203 356 394ft 0kts
22-Feb-18 23:33 33.614289 -114.713203 356 394ft 0kts
22-Feb-18 23:34 33.614289 -114.713203 356 394ft 0kts
22-Feb-18 23:35 33.614289 -114.713203 356 394ft 0kts
22-Feb-18 23:36 33.614289 -114.713203 356 394ft 0kts

Navigation Log

Ident Type
Flight plan parsing failed, navigation log unavailable